• Join FlightAware (Why Join?)
  • Login
  • US Flag GB Flag 
07:18 EDT


 

Airport Tracker/Info


-or-


 

Live Flight TrackerFlight Track Log ✈ N682RW ✈ 18-Apr-2013 ✈ KLGB - CYVR

Flight Track Log - Related Links

Times and Time Zones

All times are in EDT time to prevent confusion due to time zone crossing. See the N682RW flight status page for this flight to view local times or setup timezone preferences in your user account.

Time Position Orientation Groundspeed Altitude Reporting Facility
EDT Latitude Longitude Course Direction KTS MPH feet Rate Location/Type
00:18 33.8589 -118.3292 336° Northwest 250 288 6,600  Level Los Angeles Center
00:19 33.8736 -118.4458 279° West 297 342 9,000 1,020 Climbing Los Angeles Center
00:20 33.8956 -118.5525 284° West 287 330 9,000  Level Los Angeles Center
00:21 33.9467 -118.6503 302° West 282 325 9,000  Level Los Angeles Center
00:22 34.2720 -118.5930 348° North  Level FlightAware Approximate
00:22 34.0072 -118.7092 321° Northwest 280 322 9,000  Level Los Angeles Center
00:23 34.3708 -118.6386 336° Northwest  Level FlightAware Approximate
00:23 34.0794 -118.7039 North 269 310 9,000  Level Los Angeles Center
00:24 34.1508 -118.6711 21° North 268 308 9,000 1,020 Level Los Angeles Center
00:25 34.2222 -118.6336 23° Northeast 278 320 11,200 2,280 Climbing Los Angeles Center
00:26 34.3164 -118.6236 North 348 400 13,700 2,700 Climbing Los Angeles Center
00:27 34.4131 -118.6669 340° North 374 430 16,800 2,760 Climbing Los Angeles Center
00:28 34.5108 -118.7161 337° Northwest 384 442 19,400 2,640 Climbing Los Angeles Center
00:29 34.6114 -118.7642 339° North 390 449 22,300 2,400 Climbing Los Angeles Center
00:30 34.7122 -118.8172 337° Northwest 395 455 24,300 1,980 Climbing Los Angeles Center
00:31 34.8172 -118.8692 338° Northwest 403 464 26,400 1,860 Climbing Los Angeles Center
00:32 34.9333 -118.9067 345° North 417 480 28,200 1,800 Climbing Los Angeles Center
00:33 35.0703 -118.9539 344° North 427 491 30,100 2,040 Climbing Los Angeles Center
00:34 35.1819 -118.9911 345° North 419 482 32,500 1,920 Climbing Los Angeles Center
00:36 35.2947 -119.0064 354° North 411 473 34,100 1,440 Climbing Los Angeles Center
00:37 35.4064 -119.0206 354° North 406 467 35,500 900 Climbing Los Angeles Center
00:38 35.5153 -119.0375 353° North 401 461 36,000 240 Climbing Los Angeles Center
00:39 35.6239 -119.0536 353° North 396 456 36,000  Level Los Angeles Center
00:40 35.7328 -119.0697 353° North 395 455 36,000  Level Los Angeles Center
00:41 35.8636 -119.0892 353° North 395 455 36,000  Level Los Angeles Center
00:42 35.9742 -119.1058 353° North 399 459 36,000  Level Los Angeles Center
00:43 36.0831 -119.1219 353° North 397 457 36,000  Level Los Angeles Center
00:44 36.2142 -119.1419 353° North 400 460 36,000  Level Oakland Center
00:45 36.3267 -119.1583 353° North 411 473 36,000  Level Oakland Center
00:46 36.4375 -119.1767 352° North 408 470 36,000  Level Oakland Center
00:47 36.5475 -119.1911 354° North 399 459 36,000  Level Oakland Center
00:48 36.6578 -119.2081 353° North 399 459 36,000  Level Oakland Center
00:49 36.7689 -119.2253 353° North 402 463 36,000  Level Oakland Center
00:50 36.8797 -119.2431 353° North 412 474 36,000  Level Oakland Center
00:51 36.9906 -119.2608 353° North 407 468 36,000  Level Oakland Center
00:52 37.1011 -119.2778 353° North 411 473 36,000  Level Oakland Center
00:53 37.2114 -119.2972 352° North 420 483 36,000  Level Oakland Center
00:54 37.3456 -119.3169 353° North 407 468 36,000  Level Oakland Center
00:55 37.4553 -119.3353 352° North 401 461 36,000  Level Oakland Center
00:56 37.5656 -119.3503 354° North 400 460 36,000  Level Oakland Center
00:57 37.6761 -119.3625 355° North 399 459 36,000  Level Oakland Center
00:58 37.7867 -119.3808 353° North 401 461 36,000  Level Oakland Center
00:59 37.8975 -119.3975 353° North 402 463 36,000  Level Oakland Center
01:00 38.0100 -119.4147 353° North 406 467 36,000  Level Oakland Center
01:01 38.1217 -119.4328 353° North 406 467 36,000  Level Oakland Center
01:02 38.2367 -119.4503 353° North 402 463 36,000  Level Oakland Center
01:03 38.3422 -119.4669 353° North 399 459 36,000  Level Oakland Center
01:04 38.4583 -119.4844 353° North 400 460 36,000  Level Oakland Center
01:05 38.5683 -119.5014 353° North 399 459 36,000  Level Oakland Center
01:06 38.6794 -119.5197 353° North 399 459 36,000  Level Oakland Center
01:07 38.7908 -119.5389 352° North 401 461 36,000  Level Oakland Center
01:08 38.9011 -119.5558 353° North 397 457 36,000  Level Oakland Center
01:10 39.0376 -119.5766 353° North  Level FlightAware Approximate
01:11 39.2353 -119.6078 353° North 399 459 36,000  Level Oakland Center
01:12 39.3447 -119.6261 353° North 397 457 36,000  Level Oakland Center
01:13 39.4544 -119.6442 353° North 396 456 36,000  Level Oakland Center
01:14 39.5619 -119.6636 352° North 392 451 36,000  Level Oakland Center
01:15 39.6669 -119.6944 347° North 389 448 36,000  Level Oakland Center
01:16 39.7725 -119.7236 348° North 387 445 36,000  Level Oakland Center
01:17 39.8972 -119.7581 348° North 383 441 36,000  Level Oakland Center
01:18 40.0003 -119.7867 348° North 379 436 36,000  Level Oakland Center
01:19 40.1042 -119.8156 348° North 380 437 36,000  Level Oakland Center
01:20 40.2081 -119.8464 347° North 381 438 36,000  Level Oakland Center
01:21 40.3114 -119.8750 348° North 381 438 36,000  Level Oakland Center
01:22 40.4164 -119.9033 348° North 382 440 36,000  Level Oakland Center
01:23 40.5156 -119.9336 347° North 369 425 36,000  Level Oakland Center
01:24 40.6067 -119.9603 347° North 368 423 36,000  Level Oakland Center
01:25 40.7089 -119.9878 348° North 375 432 36,000  Level Oakland Center
01:26 40.8136 -120.0186 347° North 384 442 36,000  Level Oakland Center
01:27 40.8758 -120.0375 347° North 379 436 36,000  Level Seattle Center
01:28 40.9797 -120.0656 348° North 380 437 36,000  Level Seattle Center
01:29 41.0811 -120.0958 347° North 376 433 36,000  Level Seattle Center
01:29 41.1425 -120.1108 350° North 378 435 36,000  Level Oakland Center
01:30 41.1831 -120.1264 344° North 375 432 36,000  Level Seattle Center
01:31 41.2833 -120.1556 348° North 373 429 36,000  Level Seattle Center
01:32 41.3853 -120.1842 348° North 374 430 36,000  Level Seattle Center
01:33 41.4856 -120.2147 347° North 371 427 36,000  Level Seattle Center
01:34 41.5881 -120.2444 348° North 376 433 36,000  Level Seattle Center
01:35 41.6903 -120.2742 348° North 377 434 36,000  Level Seattle Center
01:36 41.7931 -120.3031 348° North 378 435 36,000  Level Seattle Center
01:37 41.8936 -120.3328 348° North 374 430 36,000  Level Seattle Center
01:38 41.9944 -120.3617 348° North 373 429 36,000  Level Seattle Center
01:39 42.0953 -120.3917 348° North 372 428 36,000  Level Seattle Center
01:40 42.1956 -120.4214 348° North 370 426 36,000  Level Seattle Center
01:41 42.2969 -120.4519 347° North 374 430 36,000  Level Seattle Center
01:42 42.3997 -120.4828 348° North 380 437 36,000  Level Seattle Center
01:43 42.5011 -120.5125 348° North 376 433 36,000  Level Seattle Center
01:44 42.6025 -120.5472 346° North 376 433 36,000  Level Seattle Center
01:45 42.7053 -120.5822 346° North 381 438 36,000  Level Seattle Center
01:46 42.8081 -120.6125 348° North 381 438 36,000  Level Seattle Center
01:47 42.9119 -120.6425 348° North 381 438 36,000  Level Seattle Center
01:48 43.0156 -120.6747 347° North 383 441 36,000  Level Seattle Center
01:49 43.1169 -120.7050 348° North 378 435 36,000  Level Seattle Center
01:50 43.2394 -120.7411 348° North 376 433 36,000  Level Seattle Center
01:51 43.3431 -120.7722 348° North 379 436 36,000  Level Seattle Center
01:52 43.4444 -120.8003 349° North 374 430 36,000  Level Seattle Center
01:53 43.5458 -120.8336 347° North 375 432 36,000  Level Seattle Center
01:54 43.6389 -120.8606 348° North 372 428 36,000  Level Seattle Center
01:55 43.7425 -120.8917 348° North 379 436 36,000  Level Seattle Center
01:56 43.8458 -120.9250 347° North 381 438 36,000  Level Seattle Center
01:57 43.9472 -120.9564 347° North 376 433 36,000  Level Seattle Center
01:58 44.0511 -120.9883 348° North 380 437 36,000  Level Seattle Center
01:59 44.1528 -121.0211 347° North 377 434 36,000  Level Seattle Center
02:00 44.2522 -121.0506 348° North 367 422 36,000  Level Seattle Center
02:01 44.3619 -121.0853 347° North 374 430 36,000  Level Seattle Center
02:02 44.4608 -121.1161 347° North 369 425 36,000  Level Seattle Center
02:03 44.5617 -121.1486 347° North 371 427 36,000  Level Seattle Center
02:04 44.6561 -121.1781 347° North 370 426 36,000  Level Seattle Center
02:05 44.7564 -121.2106 347° North 370 426 36,000  Level Seattle Center
02:06 44.8561 -121.2417 348° North 368 423 36,000  Level Seattle Center
02:07 44.9553 -121.2747 347° North 367 422 36,000  Level Seattle Center
02:08 45.0550 -121.3050 348° North 365 420 36,000  Level Seattle Center
02:09 45.1533 -121.3375 347° North 363 418 36,000  Level Seattle Center
02:10 45.2533 -121.3694 347° North 365 420 36,000  Level Seattle Center
02:11 45.3531 -121.4019 347° North 366 421 36,000  Level Seattle Center
02:12 45.4736 -121.4406 347° North 368 423 36,000  Level Seattle Center
02:13 45.5747 -121.4739 347° North 371 427 36,000  Level Seattle Center
02:14 45.6753 -121.5086 346° North 371 427 36,000  Level Seattle Center
02:15 45.7756 -121.5414 347° North 370 426 36,000  Level Seattle Center
02:16 45.8761 -121.5747 347° North 371 427 36,000  Level Seattle Center
02:17 45.9800 -121.6089 347° North 381 438 36,000  Level Seattle Center
02:18 46.0814 -121.6425 347° North 376 433 36,000  Level Seattle Center
02:19 46.1833 -121.6767 347° North 378 435 36,000  Level Seattle Center
02:20 46.2792 -121.7083 347° North 383 441 36,000  Level Seattle Center
02:21 46.3792 -121.7431 347° North 376 433 36,000  Level Seattle Center
02:22 46.4814 -121.7758 348° North 381 438 36,000  Level Seattle Center
02:23 46.5819 -121.8103 347° North 378 435 36,000  Level Seattle Center
02:24 46.6836 -121.8453 347° North 380 437 36,000  Level Seattle Center
02:25 46.7847 -121.8814 346° North 379 436 36,000  Level Seattle Center
02:26 46.9086 -121.9244 347° North 385 443 36,000  Level Seattle Center
02:27 47.0111 -121.9578 347° North 384 442 36,000  Level Seattle Center
02:28 47.1139 -121.9947 346° North 384 442 36,000  Level Seattle Center
02:29 47.2181 -122.0306 347° North 388 447 36,000  Level Seattle Center
02:30 47.3217 -122.0683 346° North 390 449 36,000  Level Seattle Center
02:31 47.4258 -122.1042 347° North 390 449 36,000 -240 Level Seattle Center
02:32 47.5311 -122.1428 346° North 396 456 35,600 -1,200 Descending Seattle Center
02:33 47.6358 -122.1775 347° North 397 457 33,600 -2,580 Descending Seattle Center
02:34 47.7442 -122.2158 347° North 408 470 30,400 -3,000 Descending Seattle Center
02:35 47.8739 -122.2631 346° North 411 473 27,700 -2,640 Descending Seattle Center
02:36 47.9778 -122.2967 348° North 392 451 25,100 -2,520 Descending Seattle Center
02:37 48.0800 -122.3264 349° North 383 441 22,700 -2,400 Descending Seattle Center
02:38 48.1803 -122.3550 349° North 375 432 20,400 -2,340 Descending Seattle Center
02:39 48.2786 -122.3836 349° North 367 422 18,100 -1,860 Descending Seattle Center
02:40 48.3717 -122.4108 349° North 350 403 16,700 -1,500 Descending Seattle Center
02:41 48.4644 -122.4389 349° North 345 397 15,200 -1,440 Descending Seattle Center
02:42 48.5550 -122.4642 350° North 338 389 13,800 -1,440 Descending Seattle Center
02:43 48.6428 -122.4914 348° North 330 380 12,300 -1,020 Descending Seattle Center
02:44 48.7167 -122.5333 339° North 320 368 11,900 -480 Descending Vancouver Center
02:45 48.7667 -122.6333 307° West 320 368 11,400 -900 Descending Vancouver Center
02:46 48.8167 -122.7333 307° West 310 357 10,200 -780 Descending Vancouver Center
02:47 48.8667 -122.8167 312° West 300 345 9,900 -120 Descending Vancouver Center
02:48 48.9167 -122.9167 307° West 270 311 10,000  Climbing Vancouver Center
02:49 48.9667 -122.9833 319° Northwest 270 311 10,000 -120 Level Vancouver Center
02:50 49.0167 -123.0833 307° West 270 311 9,800 -720 Descending Vancouver Center
02:51 49.0667 -123.1667 312° West 260 299 8,600 -1,260 Descending Vancouver Center
02:52 49.0833 -123.2667 284° West 230 265 7,300 -1,500 Descending Vancouver Center
02:53 49.0833 -123.3333 270° West 200 230 5,700 -1,800 Descending Vancouver Center
02:54 49.1000 -123.4167 287° West 190 219 3,700 -1,740 Descending Vancouver Center
02:55 49.1333 -123.5000 301° West 180 207 2,300 -900 Descending Vancouver Center
02:56 49.1833 -123.4667 24° Northeast 190 219 2,000 -300 Descending Vancouver Center